sensor_id;sensor_type;location;lat;lon;timestamp;temperature;humidity
23291;DHT22;11814;44.686;10.842;2022-10-30T00:00:39;15.50;99.90
23291;DHT22;11814;44.686;10.842;2022-10-30T00:03:05;15.50;99.90
23291;DHT22;11814;44.686;10.842;2022-10-30T00:05:31;15.50;99.90
23291;DHT22;11814;44.686;10.842;2022-10-30T00:07:57;15.50;99.90
23291;DHT22;11814;44.686;10.842;2022-10-30T00:10:24;15.50;99.90
23291;DHT22;11814;44.686;10.842;2022-10-30T00:12:50;15.50;99.90
23291;DHT22;11814;44.686;10.842;2022-10-30T00:15:16;15.50;99.90
23291;DHT22;11814;44.686;10.842;2022-10-30T00:17:42;15.50;99.90
23291;DHT22;11814;44.686;10.842;2022-10-30T00:20:08;15.50;99.90
23291;DHT22;11814;44.686;10.842;2022-10-30T00:22:34;15.40;99.90
23291;DHT22;11814;44.686;10.842;2022-10-30T00:25:01;15.40;99.90
23291;DHT22;11814;44.686;10.842;2022-10-30T00:27:27;15.30;99.90
23291;DHT22;11814;44.686;10.842;2022-10-30T00:29:53;15.30;99.90
23291;DHT22;11814;44.686;10.842;2022-10-30T00:32:18;15.30;99.90
23291;DHT22;11814;44.686;10.842;2022-10-30T00:34:44;15.30;99.90
23291;DHT22;11814;44.686;10.842;2022-10-30T00:37:10;15.30;99.90
23291;DHT22;11814;44.686;10.842;2022-10-30T00:39:35;15.20;99.90
23291;DHT22;11814;44.686;10.842;2022-10-30T00:42:01;15.20;99.90
23291;DHT22;11814;44.686;10.842;2022-10-30T00:44:49;15.20;99.90
23291;DHT22;11814;44.686;10.842;2022-10-30T00:47:37;15.20;99.90
23291;DHT22;11814;44.686;10.842;2022-10-30T00:50:11;15.10;99.90
23291;DHT22;11814;44.686;10.842;2022-10-30T00:52:45;15.00;99.90
23291;DHT22;11814;44.686;10.842;2022-10-30T00:55:18;15.00;99.90
23291;DHT22;11814;44.686;10.842;2022-10-30T00:57:46;14.90;99.90
23291;DHT22;11814;44.686;10.842;2022-10-30T01:00:13;14.90;99.90
23291;DHT22;11814;44.686;10.842;2022-10-30T01:02:40;14.90;99.90
23291;DHT22;11814;44.686;10.842;2022-10-30T01:05:08;14.90;99.90
23291;DHT22;11814;44.686;10.842;2022-10-30T01:07:35;14.90;99.90
23291;DHT22;11814;44.686;10.842;2022-10-30T01:10:01;14.80;99.90
23291;DHT22;11814;44.686;10.842;2022-10-30T01:12:26;14.80;99.90
23291;DHT22;11814;44.686;10.842;2022-10-30T01:14:55;14.70;99.90
23291;DHT22;11814;44.686;10.842;2022-10-30T01:20:43;14.60;99.90
23291;DHT22;11814;44.686;10.842;2022-10-30T01:34:54;14.70;99.90
23291;DHT22;11814;44.686;10.842;2022-10-30T01:37:45;14.70;99.90
23291;DHT22;11814;44.686;10.842;2022-10-30T01:40:15;14.60;99.90
23291;DHT22;11814;44.686;10.842;2022-10-30T01:42:50;14.60;99.90
23291;DHT22;11814;44.686;10.842;2022-10-30T01:51:00;14.60;99.90
23291;DHT22;11814;44.686;10.842;2022-10-30T01:56:27;14.60;99.90
23291;DHT22;11814;44.686;10.842;2022-10-30T01:59:17;14.60;99.90
23291;DHT22;11814;44.686;10.842;2022-10-30T02:01:45;14.50;99.90
23291;DHT22;11814;44.686;10.842;2022-10-30T02:04:12;14.40;99.90
23291;DHT22;11814;44.686;10.842;2022-10-30T02:06:39;14.40;99.90
23291;DHT22;11814;44.686;10.842;2022-10-30T02:09:05;14.30;99.90
23291;DHT22;11814;44.686;10.842;2022-10-30T02:11:33;14.30;99.90
23291;DHT22;11814;44.686;10.842;2022-10-30T02:14:01;14.20;99.90
23291;DHT22;11814;44.686;10.842;2022-10-30T02:16:30;14.20;99.90
23291;DHT22;11814;44.686;10.842;2022-10-30T02:18:56;14.20;99.90
23291;DHT22;11814;44.686;10.842;2022-10-30T02:21:22;14.20;99.90
23291;DHT22;11814;44.686;10.842;2022-10-30T02:23:48;14.20;99.90
23291;DHT22;11814;44.686;10.842;2022-10-30T02:26:14;14.20;99.90
23291;DHT22;11814;44.686;10.842;2022-10-30T02:28:39;14.20;99.90
23291;DHT22;11814;44.686;10.842;2022-10-30T02:31:05;14.20;99.90
23291;DHT22;11814;44.686;10.842;2022-10-30T02:33:32;14.20;99.90
23291;DHT22;11814;44.686;10.842;2022-10-30T02:35:57;14.20;99.90
23291;DHT22;11814;44.686;10.842;2022-10-30T02:38:23;14.20;99.90
23291;DHT22;11814;44.686;10.842;2022-10-30T02:40:49;14.20;99.90
23291;DHT22;11814;44.686;10.842;2022-10-30T02:43:14;14.20;99.90
23291;DHT22;11814;44.686;10.842;2022-10-30T02:45:40;14.20;99.90
23291;DHT22;11814;44.686;10.842;2022-10-30T02:48:06;14.20;99.90
23291;DHT22;11814;44.686;10.842;2022-10-30T02:50:31;14.20;99.90
23291;DHT22;11814;44.686;10.842;2022-10-30T02:52:58;14.30;99.90
23291;DHT22;11814;44.686;10.842;2022-10-30T02:55:23;14.30;99.90
23291;DHT22;11814;44.686;10.842;2022-10-30T02:57:49;14.30;99.90
23291;DHT22;11814;44.686;10.842;2022-10-30T03:00:15;14.30;99.90
23291;DHT22;11814;44.686;10.842;2022-10-30T03:02:40;14.30;99.90
23291;DHT22;11814;44.686;10.842;2022-10-30T03:05:07;14.30;99.90
23291;DHT22;11814;44.686;10.842;2022-10-30T03:07:32;14.30;99.90
23291;DHT22;11814;44.686;10.842;2022-10-30T03:09:58;14.20;99.90
23291;DHT22;11814;44.686;10.842;2022-10-30T03:12:24;14.20;99.90
23291;DHT22;11814;44.686;10.842;2022-10-30T03:14:49;14.20;99.90
23291;DHT22;11814;44.686;10.842;2022-10-30T03:17:15;14.20;99.90
23291;DHT22;11814;44.686;10.842;2022-10-30T03:19:41;14.20;99.90
23291;DHT22;11814;44.686;10.842;2022-10-30T03:22:07;14.30;99.90
23291;DHT22;11814;44.686;10.842;2022-10-30T03:24:32;14.30;99.90
23291;DHT22;11814;44.686;10.842;2022-10-30T03:26:58;14.20;99.90
23291;DHT22;11814;44.686;10.842;2022-10-30T03:29:24;14.20;99.90
23291;DHT22;11814;44.686;10.842;2022-10-30T03:31:50;14.20;99.90
23291;DHT22;11814;44.686;10.842;2022-10-30T03:34:15;14.20;99.90
23291;DHT22;11814;44.686;10.842;2022-10-30T03:36:41;14.10;99.90
23291;DHT22;11814;44.686;10.842;2022-10-30T03:39:07;14.10;99.90
23291;DHT22;11814;44.686;10.842;2022-10-30T03:41:33;14.10;99.90
23291;DHT22;11814;44.686;10.842;2022-10-30T03:43:58;14.10;99.90
23291;DHT22;11814;44.686;10.842;2022-10-30T03:46:24;14.10;99.90
23291;DHT22;11814;44.686;10.842;2022-10-30T03:48:50;14.10;99.90
23291;DHT22;11814;44.686;10.842;2022-10-30T03:51:16;14.10;99.90
23291;DHT22;11814;44.686;10.842;2022-10-30T03:53:42;14.10;99.90
23291;DHT22;11814;44.686;10.842;2022-10-30T03:56:09;14.10;99.90
23291;DHT22;11814;44.686;10.842;2022-10-30T03:58:34;14.10;99.90
23291;DHT22;11814;44.686;10.842;2022-10-30T04:01:01;14.10;99.90
23291;DHT22;11814;44.686;10.842;2022-10-30T04:03:27;14.10;99.90
23291;DHT22;11814;44.686;10.842;2022-10-30T04:05:53;14.10;99.90
23291;DHT22;11814;44.686;10.842;2022-10-30T04:08:19;14.10;99.90
23291;DHT22;11814;44.686;10.842;2022-10-30T04:10:45;14.10;99.90
23291;DHT22;11814;44.686;10.842;2022-10-30T04:13:13;14.10;99.90
23291;DHT22;11814;44.686;10.842;2022-10-30T04:15:40;14.10;99.90
23291;DHT22;11814;44.686;10.842;2022-10-30T04:18:06;14.00;99.90
23291;DHT22;11814;44.686;10.842;2022-10-30T04:20:32;14.00;99.90
23291;DHT22;11814;44.686;10.842;2022-10-30T04:23:00;14.00;99.90
23291;DHT22;11814;44.686;10.842;2022-10-30T04:25:26;14.00;99.90
23291;DHT22;11814;44.686;10.842;2022-10-30T04:27:53;13.90;99.90
23291;DHT22;11814;44.686;10.842;2022-10-30T04:30:20;13.80;99.90
23291;DHT22;11814;44.686;10.842;2022-10-30T04:32:47;13.80;99.90
23291;DHT22;11814;44.686;10.842;2022-10-30T04:35:13;13.70;99.90
23291;DHT22;11814;44.686;10.842;2022-10-30T04:37:39;13.70;99.90
23291;DHT22;11814;44.686;10.842;2022-10-30T04:40:05;13.70;99.90
23291;DHT22;11814;44.686;10.842;2022-10-30T04:42:31;13.70;99.90
23291;DHT22;11814;44.686;10.842;2022-10-30T04:44:57;13.70;99.90
23291;DHT22;11814;44.686;10.842;2022-10-30T04:47:23;13.70;99.90
23291;DHT22;11814;44.686;10.842;2022-10-30T04:49:48;13.70;99.90
23291;DHT22;11814;44.686;10.842;2022-10-30T04:52:14;13.70;99.90
23291;DHT22;11814;44.686;10.842;2022-10-30T04:54:40;13.70;99.90
23291;DHT22;11814;44.686;10.842;2022-10-30T04:57:05;13.70;99.90
23291;DHT22;11814;44.686;10.842;2022-10-30T04:59:32;13.60;99.90
23291;DHT22;11814;44.686;10.842;2022-10-30T05:01:57;13.50;99.90
23291;DHT22;11814;44.686;10.842;2022-10-30T05:04:23;13.40;99.90
23291;DHT22;11814;44.686;10.842;2022-10-30T05:06:49;13.40;99.90
23291;DHT22;11814;44.686;10.842;2022-10-30T05:09:14;13.40;99.90
23291;DHT22;11814;44.686;10.842;2022-10-30T05:11:40;13.40;99.90
23291;DHT22;11814;44.686;10.842;2022-10-30T05:14:06;13.40;99.90
23291;DHT22;11814;44.686;10.842;2022-10-30T05:16:31;13.30;99.90
23291;DHT22;11814;44.686;10.842;2022-10-30T05:18:58;13.30;99.90
23291;DHT22;11814;44.686;10.842;2022-10-30T05:21:24;13.20;99.90
23291;DHT22;11814;44.686;10.842;2022-10-30T05:23:49;13.20;99.90
23291;DHT22;11814;44.686;10.842;2022-10-30T05:26:15;13.20;99.90
23291;DHT22;11814;44.686;10.842;2022-10-30T05:28:41;13.20;99.90
23291;DHT22;11814;44.686;10.842;2022-10-30T05:31:07;13.10;99.90
23291;DHT22;11814;44.686;10.842;2022-10-30T05:33:32;13.10;99.90
23291;DHT22;11814;44.686;10.842;2022-10-30T05:35:58;13.10;99.90
23291;DHT22;11814;44.686;10.842;2022-10-30T05:38:24;13.10;99.90
23291;DHT22;11814;44.686;10.842;2022-10-30T05:40:49;13.10;99.90
23291;DHT22;11814;44.686;10.842;2022-10-30T05:43:15;13.10;99.90
23291;DHT22;11814;44.686;10.842;2022-10-30T05:45:41;13.10;99.90
23291;DHT22;11814;44.686;10.842;2022-10-30T05:48:07;13.10;99.90
23291;DHT22;11814;44.686;10.842;2022-10-30T05:50:33;13.10;99.90
23291;DHT22;11814;44.686;10.842;2022-10-30T05:53:01;13.10;99.90
23291;DHT22;11814;44.686;10.842;2022-10-30T05:55:28;13.10;99.90
23291;DHT22;11814;44.686;10.842;2022-10-30T05:57:58;13.10;99.90
23291;DHT22;11814;44.686;10.842;2022-10-30T06:00:26;13.10;99.90
23291;DHT22;11814;44.686;10.842;2022-10-30T06:02:56;13.10;99.90
23291;DHT22;11814;44.686;10.842;2022-10-30T06:05:22;13.10;99.90
23291;DHT22;11814;44.686;10.842;2022-10-30T06:07:48;13.20;99.90
23291;DHT22;11814;44.686;10.842;2022-10-30T06:10:14;13.20;99.90
23291;DHT22;11814;44.686;10.842;2022-10-30T06:12:40;13.30;99.90
23291;DHT22;11814;44.686;10.842;2022-10-30T06:15:06;13.40;99.90
23291;DHT22;11814;44.686;10.842;2022-10-30T06:17:32;13.50;99.90
23291;DHT22;11814;44.686;10.842;2022-10-30T06:19:57;13.50;99.90
23291;DHT22;11814;44.686;10.842;2022-10-30T06:22:23;13.60;99.90
23291;DHT22;11814;44.686;10.842;2022-10-30T06:24:49;13.60;99.90
23291;DHT22;11814;44.686;10.842;2022-10-30T06:27:14;13.70;99.90
23291;DHT22;11814;44.686;10.842;2022-10-30T06:29:40;13.70;99.90
23291;DHT22;11814;44.686;10.842;2022-10-30T06:32:07;13.70;99.90
23291;DHT22;11814;44.686;10.842;2022-10-30T06:34:32;13.80;99.90
23291;DHT22;11814;44.686;10.842;2022-10-30T06:36:58;13.90;99.90
23291;DHT22;11814;44.686;10.842;2022-10-30T06:39:24;14.10;99.90
23291;DHT22;11814;44.686;10.842;2022-10-30T06:41:51;14.30;99.90
23291;DHT22;11814;44.686;10.842;2022-10-30T06:44:17;14.60;99.90
23291;DHT22;11814;44.686;10.842;2022-10-30T06:46:43;15.00;99.90
23291;DHT22;11814;44.686;10.842;2022-10-30T06:49:08;15.20;99.90
23291;DHT22;11814;44.686;10.842;2022-10-30T06:51:34;15.30;99.90
23291;DHT22;11814;44.686;10.842;2022-10-30T06:54:00;15.30;99.90
23291;DHT22;11814;44.686;10.842;2022-10-30T06:56:25;15.30;99.90
23291;DHT22;11814;44.686;10.842;2022-10-30T06:58:51;15.30;99.90
23291;DHT22;11814;44.686;10.842;2022-10-30T07:01:17;15.30;99.90
23291;DHT22;11814;44.686;10.842;2022-10-30T07:03:42;15.40;99.90
23291;DHT22;11814;44.686;10.842;2022-10-30T07:06:08;15.50;99.90
23291;DHT22;11814;44.686;10.842;2022-10-30T07:08:34;15.60;99.90
23291;DHT22;11814;44.686;10.842;2022-10-30T07:10:59;15.80;99.90
23291;DHT22;11814;44.686;10.842;2022-10-30T07:13:25;16.00;99.90
23291;DHT22;11814;44.686;10.842;2022-10-30T07:15:51;16.10;99.90
23291;DHT22;11814;44.686;10.842;2022-10-30T07:18:17;16.30;99.90
23291;DHT22;11814;44.686;10.842;2022-10-30T07:20:42;16.40;99.90
23291;DHT22;11814;44.686;10.842;2022-10-30T07:23:08;16.60;99.90
23291;DHT22;11814;44.686;10.842;2022-10-30T07:25:34;16.70;99.90
23291;DHT22;11814;44.686;10.842;2022-10-30T07:27:59;16.90;99.90
23291;DHT22;11814;44.686;10.842;2022-10-30T07:30:26;17.00;99.90
23291;DHT22;11814;44.686;10.842;2022-10-30T07:33:03;17.20;99.90
23291;DHT22;11814;44.686;10.842;2022-10-30T07:35:30;17.30;99.90
23291;DHT22;11814;44.686;10.842;2022-10-30T07:38:01;17.30;99.90
23291;DHT22;11814;44.686;10.842;2022-10-30T07:40:27;17.30;99.90
23291;DHT22;11814;44.686;10.842;2022-10-30T07:42:57;17.40;99.90
23291;DHT22;11814;44.686;10.842;2022-10-30T07:45:22;17.50;99.90
23291;DHT22;11814;44.686;10.842;2022-10-30T07:47:48;17.50;99.90
23291;DHT22;11814;44.686;10.842;2022-10-30T07:50:14;17.50;99.90
23291;DHT22;11814;44.686;10.842;2022-10-30T07:52:40;17.70;99.90
23291;DHT22;11814;44.686;10.842;2022-10-30T07:55:06;18.00;99.90
23291;DHT22;11814;44.686;10.842;2022-10-30T07:57:36;18.20;99.90
23291;DHT22;11814;44.686;10.842;2022-10-30T08:00:07;18.50;99.90
23291;DHT22;11814;44.686;10.842;2022-10-30T08:02:34;18.70;99.90
23291;DHT22;11814;44.686;10.842;2022-10-30T08:05:00;18.80;99.90
23291;DHT22;11814;44.686;10.842;2022-10-30T08:07:32;18.90;99.90
23291;DHT22;11814;44.686;10.842;2022-10-30T08:09:58;19.00;99.90
23291;DHT22;11814;44.686;10.842;2022-10-30T08:12:24;19.10;99.90
23291;DHT22;11814;44.686;10.842;2022-10-30T08:14:51;19.30;99.90
23291;DHT22;11814;44.686;10.842;2022-10-30T08:17:17;19.40;99.90
23291;DHT22;11814;44.686;10.842;2022-10-30T08:19:43;19.50;99.90
23291;DHT22;11814;44.686;10.842;2022-10-30T08:22:10;19.70;99.90
23291;DHT22;11814;44.686;10.842;2022-10-30T08:24:36;19.90;99.40
23291;DHT22;11814;44.686;10.842;2022-10-30T08:27:02;20.00;99.10
23291;DHT22;11814;44.686;10.842;2022-10-30T08:29:28;20.20;98.60
23291;DHT22;11814;44.686;10.842;2022-10-30T08:31:54;20.30;98.10
23291;DHT22;11814;44.686;10.842;2022-10-30T08:34:20;20.50;97.60
23291;DHT22;11814;44.686;10.842;2022-10-30T08:36:50;20.60;96.80
23291;DHT22;11814;44.686;10.842;2022-10-30T08:39:16;20.90;96.10
23291;DHT22;11814;44.686;10.842;2022-10-30T08:41:43;21.50;96.20
23291;DHT22;11814;44.686;10.842;2022-10-30T08:44:09;22.20;95.00
23291;DHT22;11814;44.686;10.842;2022-10-30T08:46:35;22.70;92.70
23291;DHT22;11814;44.686;10.842;2022-10-30T08:49:01;23.10;91.00
23291;DHT22;11814;44.686;10.842;2022-10-30T08:51:26;23.50;90.00
23291;DHT22;11814;44.686;10.842;2022-10-30T08:53:52;24.10;88.60
23291;DHT22;11814;44.686;10.842;2022-10-30T08:56:18;24.80;86.40
23291;DHT22;11814;44.686;10.842;2022-10-30T08:58:44;25.50;82.90
23291;DHT22;11814;44.686;10.842;2022-10-30T09:01:09;26.10;80.30
23291;DHT22;11814;44.686;10.842;2022-10-30T09:03:35;26.70;77.70
23291;DHT22;11814;44.686;10.842;2022-10-30T09:06:03;27.20;75.00
23291;DHT22;11814;44.686;10.842;2022-10-30T09:08:29;27.70;72.20
23291;DHT22;11814;44.686;10.842;2022-10-30T09:10:58;28.10;70.10
23291;DHT22;11814;44.686;10.842;2022-10-30T09:13:24;28.40;68.20
23291;DHT22;11814;44.686;10.842;2022-10-30T09:15:50;28.70;67.50
23291;DHT22;11814;44.686;10.842;2022-10-30T09:18:16;28.60;65.90
23291;DHT22;11814;44.686;10.842;2022-10-30T09:20:42;28.50;65.10
23291;DHT22;11814;44.686;10.842;2022-10-30T09:23:08;28.20;64.90
23291;DHT22;11814;44.686;10.842;2022-10-30T09:25:34;28.00;64.70
23291;DHT22;11814;44.686;10.842;2022-10-30T09:28:00;27.60;64.60
23291;DHT22;11814;44.686;10.842;2022-10-30T09:30:25;27.20;64.90
23291;DHT22;11814;44.686;10.842;2022-10-30T09:32:58;26.90;65.80
23291;DHT22;11814;44.686;10.842;2022-10-30T09:35:25;26.70;66.20
23291;DHT22;11814;44.686;10.842;2022-10-30T09:37:51;26.50;66.70
23291;DHT22;11814;44.686;10.842;2022-10-30T09:54:23;25.70;69.20
23291;DHT22;11814;44.686;10.842;2022-10-30T09:57:07;25.50;69.60
23291;DHT22;11814;44.686;10.842;2022-10-30T10:05:24;25.10;71.30
23291;DHT22;11814;44.686;10.842;2022-10-30T10:07:55;24.90;71.80
23291;DHT22;11814;44.686;10.842;2022-10-30T10:10:39;24.80;72.30
23291;DHT22;11814;44.686;10.842;2022-10-30T10:13:11;24.80;72.80
23291;DHT22;11814;44.686;10.842;2022-10-30T10:15:46;24.80;73.20
23291;DHT22;11814;44.686;10.842;2022-10-30T10:19:01;24.90;73.50
23291;DHT22;11814;44.686;10.842;2022-10-30T10:21:13;25.20;73.50
23291;DHT22;11814;44.686;10.842;2022-10-30T10:23:59;25.60;73.30
23291;DHT22;11814;44.686;10.842;2022-10-30T10:32:18;26.30;70.80
23291;DHT22;11814;44.686;10.842;2022-10-30T10:40:53;25.80;70.90
23291;DHT22;11814;44.686;10.842;2022-10-30T10:43:30;25.70;71.50
23291;DHT22;11814;44.686;10.842;2022-10-30T10:48:46;25.60;72.30
23291;DHT22;11814;44.686;10.842;2022-10-30T10:51:34;25.50;72.40
23291;DHT22;11814;44.686;10.842;2022-10-30T10:54:10;25.50;72.80
23291;DHT22;11814;44.686;10.842;2022-10-30T10:56:39;25.50;72.90
23291;DHT22;11814;44.686;10.842;2022-10-30T10:59:17;25.40;72.80
23291;DHT22;11814;44.686;10.842;2022-10-30T11:01:50;25.50;73.00
23291;DHT22;11814;44.686;10.842;2022-10-30T11:04:31;25.50;73.00
23291;DHT22;11814;44.686;10.842;2022-10-30T11:09:42;26.20;72.60
23291;DHT22;11814;44.686;10.842;2022-10-30T11:12:09;26.50;72.10
23291;DHT22;11814;44.686;10.842;2022-10-30T11:14:36;26.50;71.40
23291;DHT22;11814;44.686;10.842;2022-10-30T11:19:50;26.90;70.30
23291;DHT22;11814;44.686;10.842;2022-10-30T11:24:47;26.60;70.20
23291;DHT22;11814;44.686;10.842;2022-10-30T11:29:59;26.60;70.40
23291;DHT22;11814;44.686;10.842;2022-10-30T11:32:28;26.50;70.70
23291;DHT22;11814;44.686;10.842;2022-10-30T11:37:37;26.20;71.00
23291;DHT22;11814;44.686;10.842;2022-10-30T11:40:05;26.20;71.40
23291;DHT22;11814;44.686;10.842;2022-10-30T11:42:31;26.20;71.50
23291;DHT22;11814;44.686;10.842;2022-10-30T11:44:57;26.10;71.50
23291;DHT22;11814;44.686;10.842;2022-10-30T11:47:35;26.00;71.80
23291;DHT22;11814;44.686;10.842;2022-10-30T11:50:19;26.00;71.80
23291;DHT22;11814;44.686;10.842;2022-10-30T11:52:48;26.00;71.80
23291;DHT22;11814;44.686;10.842;2022-10-30T11:55:25;26.00;71.80
23291;DHT22;11814;44.686;10.842;2022-10-30T11:57:55;26.00;71.60
23291;DHT22;11814;44.686;10.842;2022-10-30T12:00:26;25.90;71.60
23291;DHT22;11814;44.686;10.842;2022-10-30T12:02:54;25.90;71.50
23291;DHT22;11814;44.686;10.842;2022-10-30T12:13:05;25.90;71.20
23291;DHT22;11814;44.686;10.842;2022-10-30T12:15:35;25.90;71.20
23291;DHT22;11814;44.686;10.842;2022-10-30T12:18:06;26.00;71.40
23291;DHT22;11814;44.686;10.842;2022-10-30T12:20:36;26.00;71.40
23291;DHT22;11814;44.686;10.842;2022-10-30T12:23:09;26.00;71.20
23291;DHT22;11814;44.686;10.842;2022-10-30T12:25:36;26.00;70.90
23291;DHT22;11814;44.686;10.842;2022-10-30T12:28:14;26.00;70.70
23291;DHT22;11814;44.686;10.842;2022-10-30T12:36:02;26.00;69.80
23291;DHT22;11814;44.686;10.842;2022-10-30T12:38:41;26.00;69.80
23291;DHT22;11814;44.686;10.842;2022-10-30T12:41:26;26.00;70.20
23291;DHT22;11814;44.686;10.842;2022-10-30T12:43:57;25.90;70.10
23291;DHT22;11814;44.686;10.842;2022-10-30T12:51:37;25.90;69.20
23291;DHT22;11814;44.686;10.842;2022-10-30T12:54:22;25.90;69.10
23291;DHT22;11814;44.686;10.842;2022-10-30T12:57:00;25.80;69.00
23291;DHT22;11814;44.686;10.842;2022-10-30T13:00:03;25.80;68.70
23291;DHT22;11814;44.686;10.842;2022-10-30T13:08:00;25.80;68.20
23291;DHT22;11814;44.686;10.842;2022-10-30T13:10:36;25.80;68.00
23291;DHT22;11814;44.686;10.842;2022-10-30T13:13:19;25.80;68.10
23291;DHT22;11814;44.686;10.842;2022-10-30T13:15:49;25.80;68.30
23291;DHT22;11814;44.686;10.842;2022-10-30T13:18:21;25.80;68.60
23291;DHT22;11814;44.686;10.842;2022-10-30T13:26:02;25.80;68.60
23291;DHT22;11814;44.686;10.842;2022-10-30T13:28:32;25.80;68.50
23291;DHT22;11814;44.686;10.842;2022-10-30T13:31:27;25.70;68.40
23291;DHT22;11814;44.686;10.842;2022-10-30T13:36:57;25.70;68.10
23291;DHT22;11814;44.686;10.842;2022-10-30T13:42:18;25.60;67.60
23291;DHT22;11814;44.686;10.842;2022-10-30T13:45:52;25.60;67.80
23291;DHT22;11814;44.686;10.842;2022-10-30T13:50:53;25.60;68.00
23291;DHT22;11814;44.686;10.842;2022-10-30T13:53:31;25.60;68.20
23291;DHT22;11814;44.686;10.842;2022-10-30T13:55:58;25.60;68.40
23291;DHT22;11814;44.686;10.842;2022-10-30T13:58:38;25.60;68.70
23291;DHT22;11814;44.686;10.842;2022-10-30T14:03:58;25.50;69.10
23291;DHT22;11814;44.686;10.842;2022-10-30T14:06:37;25.50;69.10
23291;DHT22;11814;44.686;10.842;2022-10-30T14:11:41;25.40;69.10
23291;DHT22;11814;44.686;10.842;2022-10-30T14:17:14;25.30;69.20
23291;DHT22;11814;44.686;10.842;2022-10-30T14:20:24;25.30;69.20
23291;DHT22;11814;44.686;10.842;2022-10-30T14:25:39;25.30;69.20
23291;DHT22;11814;44.686;10.842;2022-10-30T14:28:12;25.20;69.20
23291;DHT22;11814;44.686;10.842;2022-10-30T14:30:43;25.20;69.20
23291;DHT22;11814;44.686;10.842;2022-10-30T14:38:41;25.10;69.50
23291;DHT22;11814;44.686;10.842;2022-10-30T14:44:21;25.00;69.50
23291;DHT22;11814;44.686;10.842;2022-10-30T14:55:30;24.90;70.40
23291;DHT22;11814;44.686;10.842;2022-10-30T15:00:43;24.80;71.10
23291;DHT22;11814;44.686;10.842;2022-10-30T15:05:56;24.80;71.70
23291;DHT22;11814;44.686;10.842;2022-10-30T15:09:30;24.80;71.80
23291;DHT22;11814;44.686;10.842;2022-10-30T15:11:50;24.70;71.70
23291;DHT22;11814;44.686;10.842;2022-10-30T15:14:25;24.60;71.80
23291;DHT22;11814;44.686;10.842;2022-10-30T15:16:52;24.60;71.90
23291;DHT22;11814;44.686;10.842;2022-10-30T15:19:19;24.50;72.00
23291;DHT22;11814;44.686;10.842;2022-10-30T15:21:54;24.50;72.30
23291;DHT22;11814;44.686;10.842;2022-10-30T15:24:25;24.40;72.60
23291;DHT22;11814;44.686;10.842;2022-10-30T15:26:54;24.40;72.80
23291;DHT22;11814;44.686;10.842;2022-10-30T15:29:25;24.30;73.10
23291;DHT22;11814;44.686;10.842;2022-10-30T15:32:02;24.20;73.40
23291;DHT22;11814;44.686;10.842;2022-10-30T15:34:29;24.20;73.80
23291;DHT22;11814;44.686;10.842;2022-10-30T15:36:55;24.10;74.40
23291;DHT22;11814;44.686;10.842;2022-10-30T15:39:22;24.00;74.90
23291;DHT22;11814;44.686;10.842;2022-10-30T15:41:57;23.90;75.20
23291;DHT22;11814;44.686;10.842;2022-10-30T15:44:39;23.80;76.50
23291;DHT22;11814;44.686;10.842;2022-10-30T15:47:15;23.70;76.50
23291;DHT22;11814;44.686;10.842;2022-10-30T15:49:49;23.50;77.00
23291;DHT22;11814;44.686;10.842;2022-10-30T15:52:22;23.40;77.60
23291;DHT22;11814;44.686;10.842;2022-10-30T15:54:54;23.30;78.40
23291;DHT22;11814;44.686;10.842;2022-10-30T15:57:31;23.20;78.80
23291;DHT22;11814;44.686;10.842;2022-10-30T16:00:03;23.10;79.40
23291;DHT22;11814;44.686;10.842;2022-10-30T16:02:30;22.90;79.90
23291;DHT22;11814;44.686;10.842;2022-10-30T16:04:56;22.80;80.40
23291;DHT22;11814;44.686;10.842;2022-10-30T16:07:26;22.80;81.00
23291;DHT22;11814;44.686;10.842;2022-10-30T16:09:58;22.60;81.40
23291;DHT22;11814;44.686;10.842;2022-10-30T16:12:34;22.60;82.10
23291;DHT22;11814;44.686;10.842;2022-10-30T16:15:05;22.50;82.80
23291;DHT22;11814;44.686;10.842;2022-10-30T16:17:31;22.40;83.20
23291;DHT22;11814;44.686;10.842;2022-10-30T16:20:00;22.20;83.70
23291;DHT22;11814;44.686;10.842;2022-10-30T16:22:30;22.10;84.20
23291;DHT22;11814;44.686;10.842;2022-10-30T16:24:58;22.00;84.60
23291;DHT22;11814;44.686;10.842;2022-10-30T16:27:24;21.90;85.00
23291;DHT22;11814;44.686;10.842;2022-10-30T16:29:54;21.80;85.40
23291;DHT22;11814;44.686;10.842;2022-10-30T16:32:24;21.80;85.90
23291;DHT22;11814;44.686;10.842;2022-10-30T16:34:58;21.60;86.30
23291;DHT22;11814;44.686;10.842;2022-10-30T16:37:36;21.50;86.80
23291;DHT22;11814;44.686;10.842;2022-10-30T16:40:19;21.50;87.30
23291;DHT22;11814;44.686;10.842;2022-10-30T16:43:14;21.40;87.80
23291;DHT22;11814;44.686;10.842;2022-10-30T16:45:48;21.30;88.30
23291;DHT22;11814;44.686;10.842;2022-10-30T16:48:35;21.20;88.60
23291;DHT22;11814;44.686;10.842;2022-10-30T16:51:02;21.10;89.00
23291;DHT22;11814;44.686;10.842;2022-10-30T16:53:29;21.10;89.60
23291;DHT22;11814;44.686;10.842;2022-10-30T16:55:56;21.00;90.00
23291;DHT22;11814;44.686;10.842;2022-10-30T16:58:28;21.00;90.10
23291;DHT22;11814;44.686;10.842;2022-10-30T17:01:00;20.90;90.00
23291;DHT22;11814;44.686;10.842;2022-10-30T17:03:27;20.70;89.30
23291;DHT22;11814;44.686;10.842;2022-10-30T17:06:02;20.70;89.20
23291;DHT22;11814;44.686;10.842;2022-10-30T17:08:39;20.60;89.40
23291;DHT22;11814;44.686;10.842;2022-10-30T17:11:14;20.50;89.90
23291;DHT22;11814;44.686;10.842;2022-10-30T17:14:02;20.40;90.10
23291;DHT22;11814;44.686;10.842;2022-10-30T17:16:31;20.40;90.20
23291;DHT22;11814;44.686;10.842;2022-10-30T17:18:59;20.30;90.20
23291;DHT22;11814;44.686;10.842;2022-10-30T17:21:26;20.20;90.40
23291;DHT22;11814;44.686;10.842;2022-10-30T17:23:58;20.20;90.70
23291;DHT22;11814;44.686;10.842;2022-10-30T17:26:26;20.10;91.10
23291;DHT22;11814;44.686;10.842;2022-10-30T17:28:53;20.10;91.10
23291;DHT22;11814;44.686;10.842;2022-10-30T17:31:45;20.00;91.00
23291;DHT22;11814;44.686;10.842;2022-10-30T17:34:18;20.00;91.00
23291;DHT22;11814;44.686;10.842;2022-10-30T17:36:45;19.90;91.10
23291;DHT22;11814;44.686;10.842;2022-10-30T17:39:11;19.80;91.10
23291;DHT22;11814;44.686;10.842;2022-10-30T17:41:37;19.70;91.00
23291;DHT22;11814;44.686;10.842;2022-10-30T17:44:04;19.60;91.20
23291;DHT22;11814;44.686;10.842;2022-10-30T17:46:30;19.60;91.50
23291;DHT22;11814;44.686;10.842;2022-10-30T17:48:57;19.60;91.60
23291;DHT22;11814;44.686;10.842;2022-10-30T17:51:24;19.50;91.70